Terminal Aerodrome Forecast
Issued by NWS

Home | Current Version | Previous Version | Text Only | Print | Product List | Glossary On
Versions: 1 2 3 4 5 6 7 8 9 10 11 12
000
FTUS46 KMTR 242324
TAFOAK
TAF
KOAK 242324Z 2500/2606 29014KT P6SM FEW200
     FM250300 29009KT P6SM FEW012 SCT200
     FM250600 30004KT 6SM BR BKN011
     FM251800 29005KT P6SM SCT012
     FM252100 30012KT P6SM FEW012 SCT200
     FM260400 29010KT P6SM BKN015=

USA.gov is the U.S. government's official web portal to all federal, state and local government web resources and services.